Time;durP1;ratioP1;P1;durP2;ratioP2;P2;SDS_P1;SDS_P2;PMS_P1;PMS_P2;Temp;Humidity;BMP_temperature;BMP_pressure;BME280_temperature;BME280_humidity;BME280_pressure;Samples;Min_cycle;Max_cycle;Signal;HPM_P1;HPM_P2
2023/01/27 00:00:05;;;;;;;9.90;8.93;;;3.90;99.90;;;;;;5071739;28;20269;-64
2023/01/27 00:02:31;;;;;;;8.07;7.67;;;3.90;99.90;;;;;;5058863;28;20233;-64
2023/01/27 00:04:57;;;;;;;19.60;9.07;;;3.80;99.90;;;;;;5052287;28;20175;-64
2023/01/27 00:07:23;;;;;;;8.33;7.93;;;3.80;99.90;;;;;;5062844;28;20584;-64
2023/01/27 00:09:48;;;;;;;9.93;8.80;;;3.80;99.90;;;;;;5071586;28;20170;-65
2023/01/27 00:15:07;;;;;;;10.53;8.80;;;3.70;99.90;;;;;;5051732;28;20189;-64
2023/01/27 00:17:33;;;;;;;9.70;9.20;;;3.70;99.90;;;;;;5063396;28;20583;-64
2023/01/27 00:19:59;;;;;;;9.43;8.53;;;3.70;99.90;;;;;;5069179;28;20166;-64
2023/01/27 00:25:09;;;;;;;7.70;7.20;;;3.80;99.90;;;;;;5051793;28;20259;-64
2023/01/27 00:27:35;;;;;;;8.80;8.00;;;3.80;99.90;;;;;;5083996;28;20195;-64
2023/01/27 00:30:03;;;;;;;8.53;7.97;;;3.90;99.90;;;;;;5051771;28;20518;-64
2023/01/27 00:35:15;;;;;;;9.20;8.53;;;3.90;99.90;;;;;;5051354;28;20201;-64
2023/01/27 00:37:44;;;;;;;8.30;7.70;;;3.90;99.90;;;;;;5051523;28;20565;-63
2023/01/27 00:40:14;;;;;;;7.77;7.27;;;3.90;99.90;;;;;;5051930;28;20202;-63
2023/01/27 00:42:40;;;;;;;8.23;7.63;;;3.90;99.90;;;;;;5071532;28;20288;-63
2023/01/27 00:47:51;;;;;;;8.50;7.70;;;4.00;99.90;;;;;;5071551;28;20255;-64
2023/01/27 00:50:18;;;;;;;7.20;6.80;;;4.00;99.90;;;;;;5070121;28;20521;-63
2023/01/27 00:52:43;;;;;;;8.23;7.53;;;4.00;99.90;;;;;;5049991;28;20225;-63
2023/01/27 00:55:09;;;;;;;8.67;7.70;;;4.10;99.90;;;;;;5060002;28;20178;-63
2023/01/27 00:57:38;;;;;;;6.93;6.53;;;4.10;99.90;;;;;;5071423;28;20196;-63
2023/01/27 01:00:05;;;;;;;7.33;6.93;;;4.10;99.90;;;;;;5063019;28;20527;-63
2023/01/27 01:02:31;;;;;;;7.37;7.03;;;4.10;99.90;;;;;;5051409;28;20182;-63
2023/01/27 01:04:57;;;;;;;12.70;8.10;;;4.10;99.90;;;;;;5057921;28;20529;-63
2023/01/27 01:07:22;;;;;;;7.40;6.90;;;4.10;99.90;;;;;;5070989;28;20205;-64
2023/01/27 01:09:48;;;;;;;7.77;7.23;;;4.10;99.90;;;;;;5066147;28;20582;-64
2023/01/27 01:12:13;;;;;;;8.47;7.90;;;4.10;99.90;;;;;;5051044;28;20289;-64
2023/01/27 01:14:39;;;;;;;7.23;6.83;;;4.10;99.90;;;;;;5060597;28;20186;-64
2023/01/27 01:17:05;;;;;;;8.37;7.43;;;4.10;99.90;;;;;;5071197;28;20243;-64
2023/01/27 01:19:30;;;;;;;8.33;7.73;;;4.10;99.90;;;;;;5062675;28;20261;-64
2023/01/27 01:21:56;;;;;;;11.50;7.23;;;4.10;99.90;;;;;;5050984;28;20193;-64
2023/01/27 01:24:22;;;;;;;8.67;7.97;;;4.10;99.90;;;;;;5057114;28;20193;-65
2023/01/27 01:26:47;;;;;;;8.30;7.70;;;4.10;99.90;;;;;;5071103;28;20194;-64
2023/01/27 01:29:13;;;;;;;8.43;7.83;;;4.10;99.90;;;;;;5065875;28;20561;-62
2023/01/27 01:31:39;;;;;;;8.47;7.73;;;4.10;99.90;;;;;;5050970;28;20203;-64
2023/01/27 01:34:04;;;;;;;12.53;8.57;;;4.10;99.90;;;;;;5052229;28;20179;-64
2023/01/27 01:36:30;;;;;;;9.30;8.60;;;4.10;99.90;;;;;;5070839;28;20229;-64
2023/01/27 01:38:56;;;;;;;9.77;9.03;;;4.10;99.90;;;;;;5069915;28;20608;-64
2023/01/27 01:41:22;;;;;;;9.53;8.63;;;4.00;99.90;;;;;;5051035;28;20578;-65
2023/01/27 01:43:49;;;;;;;8.40;7.70;;;4.00;99.90;;;;;;5069558;28;20177;-64
2023/01/27 01:46:15;;;;;;;10.93;9.53;;;4.00;99.90;;;;;;5070835;28;20181;-64
2023/01/27 01:48:46;;;;;;;10.63;9.70;;;4.00;99.90;;;;;;5053226;28;20623;-64
2023/01/27 01:51:20;;;;;;;15.23;10.37;;;3.90;99.90;;;;;;5050457;28;20589;-64
2023/01/27 01:54:02;;;;;;;10.67;9.23;;;3.90;99.90;;;;;;5068188;28;20201;-64
2023/01/27 01:56:56;;;;;;;10.17;9.37;;;3.90;99.90;;;;;;5070678;28;20201;-64
2023/01/27 01:59:34;;;;;;;9.30;8.50;;;3.90;99.90;;;;;;5051101;28;20579;-64
2023/01/27 02:02:05;;;;;;;11.27;10.47;;;3.80;99.90;;;;;;5055851;28;20257;-64
2023/01/27 02:04:36;;;;;;;9.70;9.10;;;3.90;99.90;;;;;;5074387;28;20585;-64
2023/01/27 02:07:10;;;;;;;11.57;10.57;;;3.80;99.90;;;;;;5072904;28;20229;-65
2023/01/27 02:09:38;;;;;;;10.53;9.53;;;3.80;99.90;;;;;;5034071;28;20664;-64
2023/01/27 02:12:04;;;;;;;11.20;10.37;;;3.90;99.90;;;;;;5054644;28;20210;-64
2023/01/27 02:14:30;;;;;;;10.77;9.83;;;3.90;99.90;;;;;;5054198;28;20205;-63
2023/01/27 02:16:56;;;;;;;11.13;10.17;;;3.90;99.90;;;;;;5070900;28;20206;-64
2023/01/27 02:19:54;;;;;;;9.73;9.03;;;3.90;99.90;;;;;;5073580;28;20228;-63
2023/01/27 02:22:41;;;;;;;10.37;9.57;;;4.00;99.90;;;;;;5054369;28;20190;-64
2023/01/27 02:25:17;;;;;;;10.40;9.80;;;4.00;99.90;;;;;;5054232;28;20175;-64
2023/01/27 02:27:42;;;;;;;9.67;9.13;;;4.00;99.90;;;;;;5074076;28;20322;-63
2023/01/27 02:30:09;;;;;;;16.63;9.97;;;4.00;99.90;;;;;;5073288;28;20632;-64
2023/01/27 02:32:34;;;;;;;10.40;9.70;;;3.90;99.90;;;;;;5053747;28;20295;-64
2023/01/27 02:35:01;;;;;;;9.80;9.10;;;3.90;99.90;;;;;;5054031;28;20210;-63
2023/01/27 02:37:29;;;;;;;10.60;9.63;;;3.90;99.90;;;;;;5072066;28;20664;-64
2023/01/27 02:39:57;;;;;;;18.80;10.17;;;3.90;99.90;;;;;;5073409;28;20178;-63
2023/01/27 02:42:22;;;;;;;12.07;10.80;;;3.90;99.90;;;;;;5056023;28;20190;-64
2023/01/27 02:44:48;;;;;;;16.03;12.43;;;3.80;99.90;;;;;;5058903;28;20517;-63
2023/01/27 02:47:14;;;;;;;12.80;11.57;;;3.80;99.90;;;;;;5073423;28;20194;-64
2023/01/27 02:49:40;;;;;;;10.00;9.00;;;3.80;99.90;;;;;;5069371;28;20189;-65
2023/01/27 02:52:05;;;;;;;10.17;9.40;;;3.80;99.90;;;;;;5053503;28;20211;-63
2023/01/27 02:54:31;;;;;;;9.83;8.93;;;3.80;99.90;;;;;;5054916;28;20221;-64
2023/01/27 02:56:57;;;;;;;11.60;10.63;;;3.70;99.90;;;;;;5073220;28;20244;-64
2023/01/27 02:59:22;;;;;;;8.40;7.90;;;3.70;99.90;;;;;;5072603;28;20177;-63
2023/01/27 03:01:48;;;;;;;9.17;8.57;;;3.70;99.90;;;;;;5053399;28;20328;-63
2023/01/27 03:04:14;;;;;;;9.00;8.40;;;3.60;99.90;;;;;;5061173;28;20182;-64
2023/01/27 03:06:40;;;;;;;9.07;8.30;;;3.70;99.90;;;;;;5073118;28;20564;-64
2023/01/27 03:09:06;;;;;;;8.50;8.10;;;3.70;99.90;;;;;;5066470;28;20182;-62
2023/01/27 03:14:16;;;;;;;10.03;9.37;;;3.60;99.90;;;;;;5059917;28;20217;-64
2023/01/27 03:19:28;;;;;;;7.77;7.37;;;3.60;99.90;;;;;;5064573;28;20763;-63
2023/01/27 03:21:55;;;;;;;8.83;8.33;;;3.60;99.90;;;;;;5052925;28;20203;-64
2023/01/27 03:24:21;;;;;;;8.67;8.10;;;3.60;99.90;;;;;;5059064;28;20601;-64
2023/01/27 03:26:47;;;;;;;9.13;8.53;;;3.60;99.90;;;;;;5072732;28;20247;-64
2023/01/27 03:31:56;;;;;;;10.97;10.17;;;3.60;99.90;;;;;;5072602;28;20208;-64
2023/01/27 03:34:22;;;;;;;9.77;9.33;;;3.60;99.90;;;;;;5067088;28;20183;-64
2023/01/27 03:47:44;;;;;;;9.27;8.57;;;3.60;99.90;;;;;;5052359;28;20255;-63
2023/01/27 03:50:10;;;;;;;9.40;8.80;;;3.50;99.90;;;;;;5061412;28;20186;-64
2023/01/27 03:52:36;;;;;;;10.07;9.37;;;3.60;99.90;;;;;;5072166;28;20202;-64
2023/01/27 03:55:03;;;;;;;8.60;8.10;;;3.50;99.90;;;;;;5063999;28;20261;-64
2023/01/27 03:57:28;;;;;;;9.27;8.67;;;3.50;99.90;;;;;;5055710;28;20251;-64
2023/01/27 03:59:54;;;;;;;8.97;8.37;;;3.40;99.90;;;;;;5071814;28;20623;-64
2023/01/27 04:07:48;;;;;;;8.67;8.00;;;3.40;99.90;;;;;;5057240;28;20296;-63
2023/01/27 04:10:14;;;;;;;10.00;9.30;;;3.40;99.90;;;;;;5071533;28;20631;-63
2023/01/27 04:12:39;;;;;;;8.30;7.90;;;3.40;99.90;;;;;;5068024;28;20289;-63
2023/01/27 04:15:06;;;;;;;9.17;8.47;;;3.40;99.90;;;;;;5051866;28;20377;-63
2023/01/27 04:17:37;;;;;;;8.97;8.47;;;3.40;99.90;;;;;;5052611;28;20191;-63
2023/01/27 04:20:06;;;;;;;9.50;8.47;;;3.50;99.90;;;;;;5051756;28;20265;-63
2023/01/27 04:22:32;;;;;;;9.50;8.70;;;3.40;99.90;;;;;;5052300;28;20186;-63
2023/01/27 04:24:58;;;;;;;8.40;7.70;;;3.40;99.90;;;;;;5051773;28;20186;-63
2023/01/27 04:27:23;;;;;;;7.40;7.00;;;3.40;99.90;;;;;;5051376;28;20198;-63
2023/01/27 04:29:49;;;;;;;9.93;8.40;;;3.40;99.90;;;;;;5070403;28;20182;-63
2023/01/27 04:32:14;;;;;;;8.27;7.67;;;3.40;99.90;;;;;;5071443;28;20550;-63
2023/01/27 04:34:40;;;;;;;8.23;7.73;;;3.40;99.90;;;;;;5057408;28;20171;-63
2023/01/27 04:37:07;;;;;;;9.37;8.47;;;3.40;99.90;;;;;;5051483;28;20527;-63
2023/01/27 04:39:33;;;;;;;9.73;8.87;;;3.40;99.90;;;;;;5050924;28;20257;-63
2023/01/27 04:41:59;;;;;;;8.90;8.27;;;3.40;99.90;;;;;;5054819;28;20289;-63
2023/01/27 04:44:24;;;;;;;8.77;8.07;;;3.40;99.90;;;;;;5051539;28;20229;-63
2023/01/27 04:46:50;;;;;;;7.03;6.67;;;3.30;99.90;;;;;;5063136;28;20202;-63
2023/01/27 04:49:16;;;;;;;8.07;7.33;;;3.20;99.90;;;;;;5071101;28;20204;-63
2023/01/27 04:51:43;;;;;;;8.60;7.73;;;3.10;99.90;;;;;;5060578;28;20214;-63
2023/01/27 04:54:08;;;;;;;7.87;7.37;;;3.00;99.90;;;;;;5051423;28;20555;-63
2023/01/27 04:56:40;;;;;;;7.23;6.83;;;2.90;99.90;;;;;;5059589;28;20236;-64
2023/01/27 04:59:09;;;;;;;7.60;6.73;;;2.80;99.90;;;;;;5071240;28;20193;-63
2023/01/27 05:01:35;;;;;;;7.63;7.23;;;2.70;99.90;;;;;;5062791;28;20179;-64
2023/01/27 05:04:00;;;;;;;7.17;6.77;;;2.70;99.90;;;;;;5051575;28;20213;-64
2023/01/27 05:06:26;;;;;;;8.07;7.57;;;2.60;99.90;;;;;;5056786;28;20548;-64
2023/01/27 05:08:52;;;;;;;7.80;7.30;;;2.50;99.90;;;;;;5071350;28;20302;-64
2023/01/27 05:11:18;;;;;;;7.63;7.03;;;2.60;99.90;;;;;;5066201;28;20178;-63
2023/01/27 05:13:44;;;;;;;7.00;6.60;;;2.60;99.90;;;;;;5051243;28;20269;-64
2023/01/27 05:16:22;;;;;;;8.10;7.43;;;2.60;99.90;;;;;;5051944;28;20202;-64
2023/01/27 05:18:49;;;;;;;7.40;6.97;;;2.60;99.90;;;;;;5071252;28;20187;-63
2023/01/27 05:21:20;;;;;;;8.80;8.07;;;2.70;99.90;;;;;;5068250;28;20179;-63
2023/01/27 05:23:46;;;;;;;7.83;7.23;;;2.80;99.90;;;;;;5051249;28;20236;-63
2023/01/27 05:26:25;;;;;;;9.63;7.07;;;2.80;99.90;;;;;;5051097;28;20175;-64
2023/01/27 05:28:51;;;;;;;7.47;6.83;;;2.90;99.90;;;;;;5051432;28;20667;-64
2023/01/27 05:31:20;;;;;;;8.47;7.97;;;3.00;99.90;;;;;;5049947;28;20868;-63
2023/01/27 05:33:48;;;;;;;8.67;8.07;;;3.10;99.90;;;;;;5050318;28;20175;-64
2023/01/27 05:36:16;;;;;;;8.00;7.60;;;3.10;99.90;;;;;;5054698;28;20636;-63
2023/01/27 05:38:42;;;;;;;9.23;8.43;;;3.20;99.90;;;;;;5054935;28;20250;-64
2023/01/27 05:41:09;;;;;;;7.97;7.47;;;3.20;99.90;;;;;;5053682;28;20235;-63
2023/01/27 05:43:36;;;;;;;9.30;8.20;;;3.20;99.90;;;;;;5073140;28;20262;-64
2023/01/27 05:46:16;;;;;;;10.70;10.00;;;3.20;99.90;;;;;;5059147;28;20201;-64
2023/01/27 05:48:44;;;;;;;11.70;10.47;;;3.30;99.90;;;;;;5054704;28;20632;-63
2023/01/27 05:51:10;;;;;;;9.63;8.83;;;3.30;99.90;;;;;;5069115;28;20190;-64
2023/01/27 05:53:36;;;;;;;9.73;8.97;;;3.30;99.90;;;;;;5074231;28;20205;-64
2023/01/27 05:56:03;;;;;;;10.73;9.67;;;3.30;99.90;;;;;;5060665;28;20660;-64
2023/01/27 05:58:30;;;;;;;9.13;8.53;;;3.30;99.90;;;;;;5054327;28;20690;-64
2023/01/27 06:00:56;;;;;;;10.07;9.47;;;3.30;99.90;;;;;;5054006;28;20171;-64
2023/01/27 06:03:22;;;;;;;9.20;8.53;;;3.40;99.90;;;;;;5054189;28;20214;-64
2023/01/27 06:05:55;;;;;;;9.03;8.33;;;3.40;99.90;;;;;;5064548;28;20202;-64
2023/01/27 06:08:22;;;;;;;10.00;9.30;;;3.40;99.90;;;;;;5074061;28;20349;-64
2023/01/27 06:10:49;;;;;;;18.63;11.77;;;3.40;99.90;;;;;;5072261;28;20182;-64
2023/01/27 06:13:15;;;;;;;9.13;8.40;;;3.40;99.90;;;;;;5074173;28;20204;-64
2023/01/27 06:15:42;;;;;;;9.40;8.83;;;3.50;99.90;;;;;;5073674;28;20526;-64
2023/01/27 06:18:09;;;;;;;8.97;8.17;;;3.40;99.90;;;;;;5074133;28;20193;-64
2023/01/27 06:20:35;;;;;;;10.33;9.53;;;3.40;99.90;;;;;;5067013;28;20433;-64
2023/01/27 06:23:01;;;;;;;9.80;9.03;;;3.40;99.90;;;;;;5054067;28;20170;-64
2023/01/27 06:25:26;;;;;;;10.60;9.67;;;3.50;99.90;;;;;;5054003;28;20254;-63
2023/01/27 06:27:56;;;;;;;9.40;8.90;;;3.50;99.90;;;;;;5054138;28;20202;-63
2023/01/27 06:30:22;;;;;;;9.57;8.80;;;3.50;99.90;;;;;;5053808;28;20167;-64
2023/01/27 06:32:48;;;;;;;9.27;8.67;;;3.50;99.90;;;;;;5053815;28;20203;-64
2023/01/27 06:35:13;;;;;;;10.10;9.23;;;3.60;99.90;;;;;;5055171;28;20174;-64
2023/01/27 06:37:39;;;;;;;11.00;9.93;;;3.60;99.90;;;;;;5073839;28;20186;-64
2023/01/27 06:40:05;;;;;;;10.23;9.53;;;3.60;99.90;;;;;;5071387;28;20174;-64
2023/01/27 06:42:30;;;;;;;10.83;9.73;;;3.60;99.90;;;;;;5061981;28;20187;-63
2023/01/27 06:44:56;;;;;;;11.17;10.20;;;3.60;99.90;;;;;;5053388;28;20167;-63
2023/01/27 06:47:21;;;;;;;10.20;9.20;;;3.60;99.90;;;;;;5062519;28;20577;-63
2023/01/27 06:49:47;;;;;;;11.00;10.00;;;3.60;99.90;;;;;;5073327;28;20636;-63
2023/01/27 06:52:13;;;;;;;10.13;9.43;;;3.60;99.90;;;;;;5065665;28;20206;-64
2023/01/27 06:54:38;;;;;;;9.60;8.93;;;3.60;99.90;;;;;;5053421;28;20171;-64
2023/01/27 06:57:04;;;;;;;9.53;8.77;;;3.70;99.90;;;;;;5058663;28;20202;-64
2023/01/27 06:59:29;;;;;;;9.53;8.83;;;3.70;99.90;;;;;;5072787;28;20165;-64
2023/01/27 07:01:55;;;;;;;10.10;9.37;;;3.70;99.90;;;;;;5069480;28;20186;-64
2023/01/27 07:04:21;;;;;;;10.63;9.93;;;3.70;99.90;;;;;;5053799;28;20170;-63
2023/01/27 07:06:46;;;;;;;11.50;10.40;;;3.70;99.90;;;;;;5054636;28;20196;-63
2023/01/27 07:09:12;;;;;;;10.27;9.57;;;3.70;99.90;;;;;;5072959;28;20174;-63
2023/01/27 07:11:38;;;;;;;9.03;8.53;;;3.70;99.90;;;;;;5063745;28;20539;-63
2023/01/27 07:14:04;;;;;;;10.50;9.80;;;3.70;99.90;;;;;;5053131;28;20163;-63
2023/01/27 07:16:29;;;;;;;11.17;10.40;;;3.80;99.90;;;;;;5059577;28;20232;-63
2023/01/27 07:18:55;;;;;;;10.07;9.03;;;3.80;99.90;;;;;;5072736;28;20174;-63
2023/01/27 07:21:20;;;;;;;10.07;9.47;;;3.70;99.90;;;;;;5066039;28;20261;-63
2023/01/27 07:23:46;;;;;;;11.43;10.43;;;3.70;99.90;;;;;;5052803;28;20178;-63
2023/01/27 07:26:11;;;;;;;10.90;10.13;;;3.70;99.90;;;;;;5056885;28;20174;-63
2023/01/27 07:28:37;;;;;;;10.07;9.57;;;3.70;99.90;;;;;;5072691;28;20182;-63
2023/01/27 07:31:03;;;;;;;10.43;9.73;;;3.70;99.90;;;;;;5070671;28;20261;-63
2023/01/27 07:33:28;;;;;;;11.60;10.77;;;3.70;99.90;;;;;;5072369;28;20691;-64
2023/01/27 07:35:54;;;;;;;11.47;10.77;;;3.70;99.90;;;;;;5071976;28;20631;-64
2023/01/27 07:38:20;;;;;;;16.00;10.47;;;3.80;99.90;;;;;;5072516;28;20591;-64
2023/01/27 07:40:46;;;;;;;13.77;10.57;;;3.80;99.90;;;;;;5070914;28;20171;-64
2023/01/27 07:43:11;;;;;;;12.00;10.93;;;3.90;99.90;;;;;;5072406;28;20632;-63
2023/01/27 07:45:37;;;;;;;12.23;11.00;;;3.90;99.90;;;;;;5072502;28;20651;-64
2023/01/27 07:48:05;;;;;;;11.50;10.50;;;3.90;99.90;;;;;;5072115;28;20208;-64
2023/01/27 07:50:31;;;;;;;10.80;10.20;;;3.90;99.90;;;;;;5072313;28;20174;-64
2023/01/27 07:53:04;;;;;;;10.50;9.90;;;4.00;99.90;;;;;;5053418;28;20222;-64
2023/01/27 07:55:31;;;;;;;11.13;10.30;;;4.00;99.90;;;;;;5052237;28;20166;-63
2023/01/27 07:57:57;;;;;;;10.17;9.57;;;4.00;99.90;;;;;;5069970;28;20564;-64
2023/01/27 08:00:23;;;;;;;10.47;9.87;;;4.10;99.90;;;;;;5071963;28;20181;-63
2023/01/27 08:02:53;;;;;;;11.40;10.40;;;4.10;99.90;;;;;;5071372;28;20196;-64
2023/01/27 08:05:19;;;;;;;11.07;10.27;;;4.10;99.90;;;;;;5072148;28;20201;-64
2023/01/27 08:07:45;;;;;;;10.00;9.47;;;4.10;99.90;;;;;;5055494;28;20202;-64
2023/01/27 08:10:11;;;;;;;10.77;9.70;;;4.10;99.90;;;;;;5051729;28;20782;-64
2023/01/27 08:12:37;;;;;;;10.43;9.33;;;4.10;99.90;;;;;;5052301;28;20297;-64
2023/01/27 08:15:03;;;;;;;11.37;9.63;;;4.10;99.90;;;;;;5052264;28;20250;-64
2023/01/27 08:17:29;;;;;;;9.47;8.83;;;4.20;99.90;;;;;;5051705;28;20214;-64
2023/01/27 08:19:55;;;;;;;10.60;9.77;;;4.20;99.90;;;;;;5051911;28;20241;-64
2023/01/27 08:22:21;;;;;;;11.63;10.57;;;4.30;99.90;;;;;;5063487;28;20261;-64
2023/01/27 08:24:47;;;;;;;9.10;8.20;;;4.40;99.90;;;;;;5053074;28;20683;-64
2023/01/27 08:27:13;;;;;;;9.00;8.23;;;4.50;99.90;;;;;;5052846;28;20281;-63
2023/01/27 08:29:39;;;;;;;9.60;8.83;;;4.50;99.90;;;;;;5054981;28;20265;-64
2023/01/27 08:32:05;;;;;;;9.63;8.90;;;4.50;99.90;;;;;;5051643;28;20190;-63
2023/01/27 08:34:30;;;;;;;10.03;9.30;;;4.60;99.90;;;;;;5050333;28;20175;-64
2023/01/27 08:36:56;;;;;;;8.27;7.47;;;4.70;99.90;;;;;;5051401;28;20190;-64
2023/01/27 08:39:22;;;;;;;9.53;8.60;;;4.80;99.90;;;;;;5054601;28;20178;-64
2023/01/27 08:41:47;;;;;;;8.60;7.70;;;4.80;99.90;;;;;;5051265;28;20205;-64
2023/01/27 08:44:13;;;;;;;8.50;8.00;;;4.90;99.90;;;;;;5050181;28;20179;-64
2023/01/27 08:46:38;;;;;;;7.73;7.23;;;4.90;99.90;;;;;;5051336;28;20234;-64
2023/01/27 08:49:04;;;;;;;8.47;7.77;;;5.00;99.90;;;;;;5066336;28;20182;-64
2023/01/27 08:51:30;;;;;;;8.80;8.07;;;5.10;99.90;;;;;;5058800;28;20194;-64
2023/01/27 08:53:55;;;;;;;8.27;7.50;;;5.10;99.90;;;;;;5051372;28;20581;-64
2023/01/27 08:56:21;;;;;;;8.13;7.53;;;5.00;99.90;;;;;;5051424;28;20179;-64
2023/01/27 08:58:47;;;;;;;7.30;6.87;;;4.90;99.90;;;;;;5051331;28;20166;-64
2023/01/27 09:01:14;;;;;;;8.20;7.50;;;4.80;99.90;;;;;;5058711;28;20335;-64
2023/01/27 09:03:39;;;;;;;7.87;7.37;;;4.90;99.90;;;;;;5071071;28;20205;-63
2023/01/27 09:06:08;;;;;;;7.83;7.33;;;4.80;99.90;;;;;;5070457;28;20209;-64
2023/01/27 09:08:33;;;;;;;8.37;7.77;;;4.90;99.90;;;;;;5075516;28;20644;-63
2023/01/27 09:10:59;;;;;;;7.57;6.93;;;4.90;99.90;;;;;;5073365;28;20194;-64
2023/01/27 09:13:27;;;;;;;8.47;7.87;;;5.00;99.90;;;;;;5056242;28;20193;-63
2023/01/27 09:15:53;;;;;;;8.67;7.97;;;4.90;99.90;;;;;;5058848;28;20537;-63
2023/01/27 09:18:19;;;;;;;8.27;7.57;;;4.90;99.90;;;;;;5075032;28;20190;-63
2023/01/27 09:20:45;;;;;;;7.90;7.40;;;5.00;99.90;;;;;;5072603;28;20193;-63
2023/01/27 09:23:11;;;;;;;7.70;7.10;;;5.10;99.90;;;;;;5055053;28;20167;-63
2023/01/27 09:25:36;;;;;;;8.93;8.20;;;5.10;99.90;;;;;;5054840;28;20174;-63
2023/01/27 09:28:02;;;;;;;9.03;8.17;;;5.10;99.90;;;;;;5073422;28;20209;-63
2023/01/27 09:30:28;;;;;;;9.40;8.10;;;5.20;99.90;;;;;;5054840;28;20660;-63
2023/01/27 09:32:58;;;;;;;6.93;6.53;;;5.20;99.90;;;;;;5057813;28;20289;-63
2023/01/27 09:35:25;;;;;;;8.23;7.63;;;5.20;99.90;;;;;;5053412;28;20171;-63
2023/01/27 09:37:53;;;;;;;7.50;7.00;;;5.20;99.90;;;;;;5073027;28;20217;-63
2023/01/27 09:40:37;;;;;;;7.23;6.77;;;5.30;99.90;;;;;;5073993;28;20232;-64
2023/01/27 09:43:27;;;;;;;8.57;7.60;;;5.30;99.90;;;;;;5074465;28;20186;-63
2023/01/27 09:46:00;;;;;;;7.93;7.23;;;5.40;99.90;;;;;;5073217;28;20174;-63
2023/01/27 09:48:35;;;;;;;8.00;7.30;;;5.50;99.90;;;;;;5054361;28;20273;-64
2023/01/27 09:51:43;;;;;;;7.33;6.83;;;5.50;99.90;;;;;;5059956;28;20483;-64
2023/01/27 09:54:14;;;;;;;8.20;7.60;;;5.70;99.90;;;;;;5074681;28;20182;-64
2023/01/27 09:57:08;;;;;;;12.57;7.53;;;5.80;99.90;;;;;;5073863;28;20222;-64
2023/01/27 10:00:09;;;;;;;8.40;7.80;;;5.90;99.90;;;;;;5068298;28;20234;-64
2023/01/27 10:03:02;;;;;;;7.00;6.57;;;5.90;99.90;;;;;;5054366;28;20198;-64
2023/01/27 10:05:40;;;;;;;7.70;7.30;;;5.80;99.90;;;;;;5064969;28;20206;-64
2023/01/27 10:08:36;;;;;;;7.97;7.23;;;5.70;99.90;;;;;;5074173;28;20197;-63
2023/01/27 10:11:20;;;;;;;8.97;8.17;;;5.70;99.90;;;;;;5058521;28;20758;-63
2023/01/27 10:13:59;;;;;;;7.23;6.67;;;5.70;99.90;;;;;;5054114;28;20676;-63
2023/01/27 10:16:37;;;;;;;7.43;6.93;;;5.60;99.90;;;;;;5071958;28;20936;-63
2023/01/27 10:19:33;;;;;;;9.07;8.33;;;5.60;99.90;;;;;;5074377;28;20178;-63
2023/01/27 10:22:02;;;;;;;7.97;7.40;;;5.50;99.90;;;;;;5054231;28;20206;-63
2023/01/27 10:24:47;;;;;;;9.00;7.83;;;5.50;99.90;;;;;;5051889;28;20183;-64
2023/01/27 10:27:21;;;;;;;11.23;8.23;;;5.60;99.90;;;;;;5073204;28;20288;-63
2023/01/27 10:30:02;;;;;;;8.37;7.77;;;5.60;99.90;;;;;;5053622;28;20241;-63
2023/01/27 10:32:45;;;;;;;9.63;8.87;;;5.60;99.90;;;;;;5063445;28;20300;-64
2023/01/27 10:35:21;;;;;;;7.70;7.13;;;5.60;99.90;;;;;;5053827;28;20179;-64
2023/01/27 10:38:16;;;;;;;7.87;7.17;;;5.70;99.90;;;;;;5057542;28;20186;-63
2023/01/27 10:40:51;;;;;;;7.83;7.33;;;5.80;99.90;;;;;;5070898;28;20185;-64
2023/01/27 10:43:51;;;;;;;8.73;7.90;;;5.80;99.90;;;;;;5053068;28;20185;-64
2023/01/27 10:46:25;;;;;;;7.53;7.03;;;5.80;99.90;;;;;;5048127;28;20190;-63
2023/01/27 10:48:59;;;;;;;8.20;7.70;;;5.80;99.90;;;;;;5071744;28;20173;-64
2023/01/27 10:51:37;;;;;;;7.40;7.00;;;5.70;99.90;;;;;;5065759;28;20198;-64
2023/01/27 10:54:23;;;;;;;7.17;6.60;;;5.70;99.90;;;;;;5053508;28;20213;-63
2023/01/27 10:57:01;;;;;;;7.17;6.67;;;5.60;99.90;;;;;;5052298;28;20534;-63
2023/01/27 10:59:46;;;;;;;8.63;8.03;;;5.60;99.90;;;;;;5053114;28;20163;-64
2023/01/27 11:02:32;;;;;;;8.80;7.93;;;5.60;99.90;;;;;;5065479;28;20390;-64
2023/01/27 11:05:02;;;;;;;11.93;6.70;;;5.60;99.90;;;;;;5073258;28;20247;-64
2023/01/27 11:07:30;;;;;;;7.07;6.57;;;5.60;99.90;;;;;;5072557;28;20228;-62
2023/01/27 11:09:58;;;;;;;7.30;6.80;;;5.70;99.90;;;;;;5072863;28;20583;-64
2023/01/27 11:12:46;;;;;;;6.63;6.23;;;5.80;99.90;;;;;;5059588;28;20191;-63
2023/01/27 11:15:28;;;;;;;6.60;6.23;;;5.80;99.90;;;;;;5053055;28;20258;-63
2023/01/27 11:18:14;;;;;;;7.43;6.83;;;5.90;99.90;;;;;;5052904;28;20293;-63
2023/01/27 11:20:44;;;;;;;7.57;6.93;;;5.80;99.90;;;;;;5054548;28;20254;-64
2023/01/27 11:23:17;;;;;;;10.77;6.97;;;5.80;99.90;;;;;;5072830;28;20639;-64
2023/01/27 11:26:07;;;;;;;7.70;7.17;;;5.80;99.90;;;;;;5070525;28;20199;-63
2023/01/27 11:28:36;;;;;;;6.93;6.63;;;5.90;99.90;;;;;;5052899;28;20457;-63
2023/01/27 11:31:31;;;;;;;6.53;6.00;;;5.90;99.90;;;;;;5054861;28;20717;-63
2023/01/27 11:34:12;;;;;;;6.40;5.93;;;6.00;99.90;;;;;;5072536;28;20210;-64
2023/01/27 11:36:37;;;;;;;6.90;6.50;;;6.00;99.90;;;;;;5064124;28;20183;-63
2023/01/27 11:39:05;;;;;;;6.80;6.40;;;6.00;99.90;;;;;;5052602;28;20167;-64
2023/01/27 11:41:47;;;;;;;7.10;6.60;;;6.00;99.90;;;;;;5058138;28;20539;-63
2023/01/27 11:44:22;;;;;;;7.67;7.17;;;6.00;99.90;;;;;;5065341;28;20648;-63
2023/01/27 11:46:49;;;;;;;9.30;7.83;;;6.10;99.90;;;;;;5052477;28;20193;-64
2023/01/27 11:49:24;;;;;;;7.27;6.70;;;6.10;99.90;;;;;;5058634;28;20189;-64
2023/01/27 11:51:50;;;;;;;7.37;6.77;;;6.10;99.90;;;;;;5071892;28;20308;-63
2023/01/27 11:54:24;;;;;;;7.43;6.60;;;6.20;99.90;;;;;;5066120;28;20513;-63
2023/01/27 11:56:50;;;;;;;6.33;5.83;;;6.30;99.90;;;;;;5052695;28;20250;-64
2023/01/27 11:59:23;;;;;;;6.90;6.30;;;6.50;99.90;;;;;;5057260;28;20183;-64
2023/01/27 12:02:06;;;;;;;8.40;7.53;;;6.80;99.90;;;;;;5073578;28;20218;-63
2023/01/27 12:04:37;;;;;;;8.03;7.43;;;7.00;99.90;;;;;;5050387;28;20186;-64
2023/01/27 12:07:12;;;;;;;7.17;6.77;;;7.00;99.90;;;;;;5075027;28;20269;-64
2023/01/27 12:09:39;;;;;;;7.63;7.17;;;7.00;99.90;;;;;;5063885;28;20200;-63
2023/01/27 12:12:10;;;;;;;6.70;6.30;;;6.90;99.90;;;;;;5057127;28;20194;-64
2023/01/27 12:14:35;;;;;;;6.63;6.23;;;6.80;99.90;;;;;;5071729;28;20166;-64
2023/01/27 12:17:04;;;;;;;6.13;5.80;;;6.80;99.90;;;;;;5067025;28;20690;-63
2023/01/27 12:19:35;;;;;;;6.90;6.50;;;6.80;99.90;;;;;;5051338;28;20171;-64
2023/01/27 12:22:16;;;;;;;6.33;6.03;;;6.80;99.90;;;;;;5055400;28;20628;-64
2023/01/27 12:24:48;;;;;;;6.60;6.20;;;6.80;99.90;;;;;;5071757;28;20307;-64
2023/01/27 12:27:23;;;;;;;6.07;5.67;;;6.70;99.90;;;;;;5066319;28;20194;-64
2023/01/27 12:29:56;;;;;;;6.27;5.87;;;6.70;99.90;;;;;;5051280;28;20200;-64
2023/01/27 12:32:39;;;;;;;5.87;5.47;;;6.60;99.90;;;;;;5056936;28;20205;-63
2023/01/27 12:35:06;;;;;;;6.57;6.13;;;6.50;99.90;;;;;;5071629;28;20320;-64
2023/01/27 12:37:36;;;;;;;6.80;6.30;;;6.50;99.90;;;;;;5064690;28;20532;-64
2023/01/27 12:40:05;;;;;;;6.13;5.80;;;6.50;99.90;;;;;;5055881;28;20178;-64
2023/01/27 12:42:47;;;;;;;6.90;6.40;;;6.50;99.90;;;;;;5065699;28;20186;-64
2023/01/27 12:45:30;;;;;;;6.13;5.73;;;6.50;99.90;;;;;;5055832;28;20175;-64
2023/01/27 12:48:03;;;;;;;6.17;5.73;;;6.50;99.90;;;;;;5051358;28;20209;-63
2023/01/27 12:50:32;;;;;;;5.70;5.40;;;6.50;99.90;;;;;;5057823;28;20265;-64
2023/01/27 12:53:18;;;;;;;6.13;5.83;;;6.40;99.90;;;;;;5071202;28;20214;-64
2023/01/27 12:55:50;;;;;;;6.00;5.70;;;6.30;99.90;;;;;;5070699;28;20244;-64
2023/01/27 12:58:33;;;;;;;5.57;5.27;;;6.30;99.90;;;;;;5071051;28;20213;-64
2023/01/27 13:01:20;;;;;;;5.43;5.23;;;6.30;99.90;;;;;;5054614;28;20182;-64
2023/01/27 13:04:09;;;;;;;6.40;6.00;;;6.30;99.90;;;;;;5051692;28;20197;-64
2023/01/27 13:06:43;;;;;;;5.90;5.60;;;6.20;99.90;;;;;;5050831;28;20225;-64
2023/01/27 13:09:24;;;;;;;6.40;6.03;;;6.10;99.90;;;;;;5064713;28;20186;-63
2023/01/27 13:11:50;;;;;;;5.70;5.40;;;6.10;99.90;;;;;;5071026;28;20186;-64
2023/01/27 13:14:17;;;;;;;6.57;6.17;;;6.10;99.90;;;;;;5055406;28;20270;-64
2023/01/27 13:16:53;;;;;;;6.57;6.20;;;6.10;99.90;;;;;;5051056;28;20213;-64
2023/01/27 13:19:21;;;;;;;6.53;6.10;;;6.00;99.90;;;;;;5063989;28;20189;-64
2023/01/27 13:21:54;;;;;;;6.67;5.93;;;6.00;99.90;;;;;;5071084;28;20199;-64
2023/01/27 13:24:43;;;;;;;5.87;5.50;;;6.00;99.90;;;;;;5055515;28;20183;-64
2023/01/27 13:27:16;;;;;;;6.20;5.90;;;5.90;99.90;;;;;;5051235;28;20195;-64
2023/01/27 13:29:50;;;;;;;5.77;5.47;;;5.90;99.90;;;;;;5066605;28;20186;-64
2023/01/27 13:32:24;;;;;;;6.87;6.40;;;5.80;99.90;;;;;;5070701;28;20292;-64
2023/01/27 13:35:14;;;;;;;6.23;5.93;;;5.80;99.90;;;;;;5054133;28;20258;-64
2023/01/27 13:38:07;;;;;;;7.13;6.73;;;5.80;99.90;;;;;;5068899;28;20672;-64
2023/01/27 13:40:43;;;;;;;6.33;6.03;;;5.70;99.90;;;;;;5070355;28;20213;-64
2023/01/27 13:43:12;;;;;;;7.07;6.67;;;5.70;99.90;;;;;;5050512;28;20170;-64